KEED/EED METAR and TAF weather

Enter ICAO airport designator
Station Type Date Time Source
KEED METAR 2021/08/05 04:56 UTC NOAA

KEED 050456Z AUTO 26006KT 10SM CLR 40/02 A2971 RMK AO2 SLP017 T04000017 PNO


Station Type Date Time Source
KEED Decoded METAR 2021/08/05 04:56 UTC NOAA

NEEDLES AIRPORT, CA, United States (KEED) 34-46N 114-37W
Aug 05, 2021 - 12:56 AM EDT / 2021.08.05 0456 UTC
Wind: from the W (260 degrees) at 7 MPH (6 KT):0
Visibility: 10 mile(s):0
Sky conditions: clear
Temperature: 104.0 F (40.0 C)
Dew Point: 35.1 F (1.7 C)
Relative Humidity: 9%
Pressure (altimeter): 29.71 in. Hg (1006 hPa)
ob: KEED 050456Z AUTO 26006KT 10SM CLR 40/02 A2971 RMK AO2 SLP017 T04000017 PNO
cycle: 5

Station Type Date Time Source
KEED TAF 2021/08/05 06:22 UTC NOAA

TAF KEED 050520Z 0506/0606 VRB05KT P6SM SKC
FM051800 17009KT P6SM SKC
FM052100 21015G23KT P6SM SKC
FM060300 22012KT P6SM SKC

Example: see airport list